Time;durP1;ratioP1;P1;durP2;ratioP2;P2;SDS_P1;SDS_P2;PMS_P1;PMS_P2;Temp;Humidity;BMP_temperature;BMP_pressure;BME280_temperature;BME280_humidity;BME280_pressure;Samples;Min_cycle;Max_cycle;Signal;HPM_P1;HPM_P2
2023/10/24 00:00:14;;;;;;;0.00;0.00;;;;;;;;;;5074672;28;20083;-80
2023/10/24 00:02:39;;;;;;;0.00;0.00;;;;;;;;;;5074001;28;20028;-79
2023/10/24 00:05:05;;;;;;;0.00;0.00;;;;;;;;;;5073029;28;20036;-79
2023/10/24 00:07:31;;;;;;;0.00;0.00;;;;;;;;;;5072987;28;20457;-79
2023/10/24 00:09:56;;;;;;;0.00;0.00;;;;;;;;;;5072753;28;20028;-81
2023/10/24 00:12:22;;;;;;;0.00;0.00;;;;;;;;;;5075306;28;20109;-79
2023/10/24 00:14:47;;;;;;;0.00;0.00;;;;;;;;;;5076706;28;20025;-79
2023/10/24 00:17:12;;;;;;;0.00;0.00;;;;;;;;;;5082408;28;20036;-79
2023/10/24 00:19:38;;;;;;;0.00;0.00;;;;;;;;;;5078494;28;20072;-79
2023/10/24 00:22:03;;;;;;;0.00;0.00;;;;;;;;;;5077642;28;20119;-79
2023/10/24 00:24:29;;;;;;;0.00;0.00;;;;;;;;;;5077449;28;20024;-79
2023/10/24 00:27:02;;;;;;;0.00;0.00;;;;;;;;;;5076687;28;20468;-79
2023/10/24 00:29:28;;;;;;;0.00;0.00;;;;;;;;;;5076299;28;20050;-78
2023/10/24 00:31:53;;;;;;;0.00;0.00;;;;;;;;;;5077197;28;20442;-79
2023/10/24 00:34:19;;;;;;;0.00;0.00;;;;;;;;;;5077983;28;20027;-79
2023/10/24 00:36:44;;;;;;;0.00;0.00;;;;;;;;;;5077510;28;20347;-78
2023/10/24 00:39:09;;;;;;;0.00;0.00;;;;;;;;;;5085888;28;20039;-79
2023/10/24 00:41:35;;;;;;;0.00;0.00;;;;;;;;;;5043611;28;20032;-79
2023/10/24 00:44:01;;;;;;;0.00;0.00;;;;;;;;;;5046624;28;20050;-79
2023/10/24 00:46:27;;;;;;;0.00;0.00;;;;;;;;;;5068630;28;20146;-78
2023/10/24 00:48:52;;;;;;;0.00;0.00;;;;;;;;;;5052235;28;20063;-79
2023/10/24 00:51:18;;;;;;;0.00;0.00;;;;;;;;;;5067281;28;20032;-78
2023/10/24 00:53:43;;;;;;;0.00;0.00;;;;;;;;;;5065543;28;20054;-79
2023/10/24 00:56:08;;;;;;;0.00;0.00;;;;;;;;;;5061362;28;20346;-79
2023/10/24 00:58:35;;;;;;;0.00;0.00;;;;;;;;;;5043691;28;20084;-78
2023/10/24 01:01:00;;;;;;;0.00;0.00;;;;;;;;;;5065184;28;20504;-79
2023/10/24 01:03:26;;;;;;;0.00;0.00;;;;;;;;;;5059152;28;20033;-79
2023/10/24 01:05:51;;;;;;;0.00;0.00;;;;;;;;;;5058818;28;20078;-79
2023/10/24 01:08:16;;;;;;;0.00;0.00;;;;;;;;;;5042485;28;20031;-78
2023/10/24 01:10:42;;;;;;;0.00;0.00;;;;;;;;;;5076962;28;20450;-79
2023/10/24 01:13:08;;;;;;;0.00;0.00;;;;;;;;;;5058791;28;20028;-78
2023/10/24 01:15:33;;;;;;;0.00;0.00;;;;;;;;;;5076691;28;20034;-79
2023/10/24 01:17:59;;;;;;;0.00;0.00;;;;;;;;;;5076670;28;20033;-79
2023/10/24 01:20:24;;;;;;;0.00;0.00;;;;;;;;;;5080032;28;20024;-79
2023/10/24 01:22:50;;;;;;;0.00;0.00;;;;;;;;;;5077552;28;20047;-78
2023/10/24 01:25:15;;;;;;;0.00;0.00;;;;;;;;;;5076509;28;20043;-78
2023/10/24 01:27:45;;;;;;;0.00;0.00;;;;;;;;;;5076256;28;20024;-79
2023/10/24 01:30:11;;;;;;;0.00;0.00;;;;;;;;;;5057395;28;20024;-79
2023/10/24 01:32:37;;;;;;;0.00;0.00;;;;;;;;;;5062103;28;20043;-77
2023/10/24 01:35:02;;;;;;;0.00;0.00;;;;;;;;;;5076117;28;20115;-78
2023/10/24 01:37:27;;;;;;;0.00;0.00;;;;;;;;;;5074901;28;20024;-79
2023/10/24 01:39:53;;;;;;;0.00;0.00;;;;;;;;;;5076056;28;20359;-79
2023/10/24 01:42:18;;;;;;;0.00;0.00;;;;;;;;;;5087271;28;20032;-79
2023/10/24 01:44:44;;;;;;;0.00;0.00;;;;;;;;;;5075413;28;20103;-80
2023/10/24 01:47:09;;;;;;;0.00;0.00;;;;;;;;;;5075881;28;20024;-78
2023/10/24 01:49:35;;;;;;;0.00;0.00;;;;;;;;;;5058236;28;20024;-79
2023/10/24 01:52:00;;;;;;;0.00;0.00;;;;;;;;;;5076098;28;20449;-79
2023/10/24 01:54:26;;;;;;;0.00;0.00;;;;;;;;;;5074474;28;20442;-79
2023/10/24 01:56:51;;;;;;;0.00;0.00;;;;;;;;;;5073058;28;20039;-79
2023/10/24 01:59:17;;;;;;;0.00;0.00;;;;;;;;;;5075939;28;20068;-79
2023/10/24 02:01:42;;;;;;;0.00;0.00;;;;;;;;;;5042249;28;20035;-79
2023/10/24 02:04:08;;;;;;;0.00;0.00;;;;;;;;;;5084848;28;20040;-79
2023/10/24 02:06:33;;;;;;;0.00;0.00;;;;;;;;;;5075709;28;20028;-78
2023/10/24 02:08:59;;;;;;;0.00;0.00;;;;;;;;;;5075755;28;20028;-78
2023/10/24 02:11:24;;;;;;;0.00;0.00;;;;;;;;;;5075708;28;20035;-78
2023/10/24 02:13:50;;;;;;;0.00;0.00;;;;;;;;;;5075627;28;20060;-78
2023/10/24 02:16:15;;;;;;;0.00;0.00;;;;;;;;;;5075622;28;20032;-78
2023/10/24 02:18:41;;;;;;;0.00;0.00;;;;;;;;;;5075623;28;20115;-80
2023/10/24 02:21:07;;;;;;;0.00;0.00;;;;;;;;;;5074321;28;20117;-80
2023/10/24 02:23:32;;;;;;;0.00;0.00;;;;;;;;;;5081246;28;20032;-80
2023/10/24 02:25:58;;;;;;;0.00;0.00;;;;;;;;;;5081523;28;20075;-78
2023/10/24 02:28:23;;;;;;;0.00;0.00;;;;;;;;;;5075168;28;20032;-79
2023/10/24 02:30:49;;;;;;;0.00;0.00;;;;;;;;;;5075303;28;20028;-79
2023/10/24 02:33:14;;;;;;;0.00;0.00;;;;;;;;;;5073649;28;20048;-79
2023/10/24 02:35:39;;;;;;;0.00;0.00;;;;;;;;;;5074969;28;20028;-78
2023/10/24 02:38:06;;;;;;;0.00;0.00;;;;;;;;;;5057468;28;20665;-79
2023/10/24 02:40:31;;;;;;;0.00;0.00;;;;;;;;;;5075360;28;20035;-79
2023/10/24 02:42:57;;;;;;;0.00;0.00;;;;;;;;;;5074269;28;20036;-78
2023/10/24 02:45:23;;;;;;;0.00;0.00;;;;;;;;;;5078338;28;20039;-78
2023/10/24 02:47:48;;;;;;;0.00;0.00;;;;;;;;;;5077139;28;20029;-79
2023/10/24 02:50:14;;;;;;;0.00;0.00;;;;;;;;;;5073956;28;20045;-79
2023/10/24 02:52:39;;;;;;;0.10;0.00;;;;;;;;;;5073892;28;20066;-79
2023/10/24 02:55:06;;;;;;;0.00;0.00;;;;;;;;;;5073785;28;20370;-79
2023/10/24 02:57:31;;;;;;;0.00;0.00;;;;;;;;;;5057303;28;20029;-79
2023/10/24 02:59:56;;;;;;;0.00;0.00;;;;;;;;;;5074716;28;20027;-79
2023/10/24 03:02:22;;;;;;;0.00;0.00;;;;;;;;;;5074921;28;20123;-79
2023/10/24 03:04:47;;;;;;;0.00;0.00;;;;;;;;;;5073324;28;20056;-79
2023/10/24 03:07:13;;;;;;;0.00;0.00;;;;;;;;;;5083759;28;20035;-79
2023/10/24 03:09:38;;;;;;;0.00;0.00;;;;;;;;;;5074962;28;20028;-79
2023/10/24 03:12:09;;;;;;;0.00;0.00;;;;;;;;;;5074553;28;20017;-79
2023/10/24 03:14:34;;;;;;;0.00;0.00;;;;;;;;;;5057060;28;20123;-79
2023/10/24 03:17:00;;;;;;;0.00;0.00;;;;;;;;;;5074639;28;20091;-78
2023/10/24 03:19:27;;;;;;;0.00;0.00;;;;;;;;;;5073709;28;20055;-78
2023/10/24 03:21:52;;;;;;;0.00;0.00;;;;;;;;;;5074322;28;20051;-79
2023/10/24 03:24:18;;;;;;;0.00;0.00;;;;;;;;;;5056339;28;20044;-79
2023/10/24 03:26:43;;;;;;;0.00;0.00;;;;;;;;;;5074915;28;20021;-78
2023/10/24 03:29:09;;;;;;;0.00;0.00;;;;;;;;;;5079386;28;20032;-78
2023/10/24 03:31:36;;;;;;;0.00;0.00;;;;;;;;;;5074431;28;20025;-78
2023/10/24 03:34:01;;;;;;;0.00;0.00;;;;;;;;;;5074074;28;20098;-78
2023/10/24 03:36:27;;;;;;;0.00;0.00;;;;;;;;;;5074296;28;20086;-79
2023/10/24 03:38:52;;;;;;;0.00;0.00;;;;;;;;;;5040009;28;20373;-79
2023/10/24 03:41:18;;;;;;;0.00;0.00;;;;;;;;;;5056666;28;20055;-80
2023/10/24 03:43:51;;;;;;;0.00;0.00;;;;;;;;;;5074408;28;20039;-78
2023/10/24 03:46:17;;;;;;;0.00;0.00;;;;;;;;;;5058069;28;20029;-80
2023/10/24 03:48:42;;;;;;;0.00;0.00;;;;;;;;;;5084075;28;20033;-79
2023/10/24 03:51:08;;;;;;;0.00;0.00;;;;;;;;;;5061339;28;20115;-79
2023/10/24 03:53:33;;;;;;;0.00;0.00;;;;;;;;;;5060305;28;20036;-79
2023/10/24 03:55:59;;;;;;;0.00;0.00;;;;;;;;;;5060344;28;20138;-79
2023/10/24 03:58:25;;;;;;;0.00;0.00;;;;;;;;;;5059915;28;20032;-80
2023/10/24 04:00:50;;;;;;;0.00;0.00;;;;;;;;;;5078206;28;20032;-79
2023/10/24 04:03:16;;;;;;;0.00;0.00;;;;;;;;;;5078333;28;20511;-79
2023/10/24 04:05:41;;;;;;;0.00;0.00;;;;;;;;;;5059854;28;20028;-81
2023/10/24 04:08:09;;;;;;;0.00;0.00;;;;;;;;;;5077971;28;20036;-79
2023/10/24 04:10:34;;;;;;;0.00;0.00;;;;;;;;;;5086006;28;20032;-79
2023/10/24 04:13:00;;;;;;;0.00;0.00;;;;;;;;;;5077671;28;20043;-78
2023/10/24 04:15:25;;;;;;;0.00;0.00;;;;;;;;;;5077587;28;20036;-79
2023/10/24 04:17:51;;;;;;;0.00;0.00;;;;;;;;;;5043191;28;20040;-80
2023/10/24 04:20:16;;;;;;;0.00;0.00;;;;;;;;;;5078094;28;20032;-78
2023/10/24 04:22:42;;;;;;;0.00;0.00;;;;;;;;;;5077544;28;20064;-79
2023/10/24 04:25:08;;;;;;;0.00;0.00;;;;;;;;;;5077629;28;20366;-79
2023/10/24 04:27:33;;;;;;;0.00;0.00;;;;;;;;;;5077271;28;20095;-79
2023/10/24 04:29:59;;;;;;;0.00;0.00;;;;;;;;;;5079174;28;20390;-79
2023/10/24 04:32:24;;;;;;;0.00;0.00;;;;;;;;;;5081526;28;20048;-79
2023/10/24 04:34:51;;;;;;;0.00;0.00;;;;;;;;;;5077386;28;20117;-78
2023/10/24 04:37:18;;;;;;;0.00;0.00;;;;;;;;;;5077129;28;20458;-79
2023/10/24 04:39:44;;;;;;;0.00;0.00;;;;;;;;;;5059088;28;20111;-80
2023/10/24 04:42:09;;;;;;;0.00;0.00;;;;;;;;;;5081295;28;20100;-77
2023/10/24 04:44:35;;;;;;;0.00;0.00;;;;;;;;;;5078007;28;20520;-77
2023/10/24 04:47:00;;;;;;;0.00;0.00;;;;;;;;;;5097026;28;20411;-76
2023/10/24 04:49:26;;;;;;;0.00;0.00;;;;;;;;;;5096758;28;20039;-76
2023/10/24 04:51:52;;;;;;;0.00;0.00;;;;;;;;;;5078622;28;20353;-78
2023/10/24 04:54:17;;;;;;;0.00;0.00;;;;;;;;;;5063371;28;20040;-77
2023/10/24 04:56:48;;;;;;;0.00;0.00;;;;;;;;;;5081371;28;20035;-76
2023/10/24 04:59:14;;;;;;;0.00;0.00;;;;;;;;;;5081290;28;20382;-77
2023/10/24 05:01:40;;;;;;;0.00;0.00;;;;;;;;;;5085291;28;20469;-76
2023/10/24 05:04:09;;;;;;;0.00;0.00;;;;;;;;;;5062740;28;20044;-77
2023/10/24 05:06:35;;;;;;;0.00;0.00;;;;;;;;;;5076473;28;20020;-75
2023/10/24 05:09:00;;;;;;;0.00;0.00;;;;;;;;;;5056418;28;20017;-77
2023/10/24 05:11:26;;;;;;;0.00;0.00;;;;;;;;;;5080242;28;20031;-78
2023/10/24 05:13:51;;;;;;;0.00;0.00;;;;;;;;;;5082753;28;20109;-77
2023/10/24 05:16:17;;;;;;;0.00;0.00;;;;;;;;;;5075987;28;20412;-76
2023/10/24 05:18:43;;;;;;;0.00;0.00;;;;;;;;;;5093325;28;20028;-76
2023/10/24 05:21:08;;;;;;;0.00;0.00;;;;;;;;;;5102062;28;20464;-78
2023/10/24 05:23:33;;;;;;;0.00;0.00;;;;;;;;;;5058198;28;20504;-76
2023/10/24 05:25:59;;;;;;;0.00;0.00;;;;;;;;;;5072695;28;20024;-76
2023/10/24 05:28:25;;;;;;;0.00;0.00;;;;;;;;;;5070561;28;20027;-77
2023/10/24 05:30:50;;;;;;;0.00;0.00;;;;;;;;;;5092448;28;20048;-77
2023/10/24 05:33:16;;;;;;;0.00;0.00;;;;;;;;;;5088018;28;20044;-77
2023/10/24 05:35:48;;;;;;;0.00;0.00;;;;;;;;;;5088181;28;20075;-78
2023/10/24 05:38:13;;;;;;;0.00;0.00;;;;;;;;;;5075619;28;20454;-77
2023/10/24 05:40:39;;;;;;;0.00;0.00;;;;;;;;;;5074048;28;20071;-77
2023/10/24 05:43:06;;;;;;;0.00;0.00;;;;;;;;;;5076375;28;20031;-77
2023/10/24 05:45:32;;;;;;;0.00;0.00;;;;;;;;;;5073201;28;20459;-79
2023/10/24 05:48:00;;;;;;;0.00;0.00;;;;;;;;;;5087481;28;20042;-78
2023/10/24 05:50:30;;;;;;;0.00;0.00;;;;;;;;;;5096546;28;20063;-78
2023/10/24 05:52:56;;;;;;;0.20;0.00;;;;;;;;;;5082789;28;20093;-76
2023/10/24 05:55:21;;;;;;;0.00;0.00;;;;;;;;;;5076678;28;20032;-76
2023/10/24 05:57:47;;;;;;;0.00;0.00;;;;;;;;;;5097325;28;20031;-75
2023/10/24 06:07:30;;;;;;;0.00;0.00;;;;;;;;;;4930761;28;20102;-76
2023/10/24 06:10:06;;;;;;;0.00;0.00;;;;;;;;;;5073972;28;20036;-76
2023/10/24 06:16:46;;;;;;;0.00;0.00;;;;;;;;;;5040216;28;20033;-75
2023/10/24 06:19:11;;;;;;;0.10;0.00;;;;;;;;;;5079177;28;20048;-76
2023/10/24 06:21:37;;;;;;;0.00;0.00;;;;;;;;;;5066867;28;20044;-74
2023/10/24 06:24:02;;;;;;;0.00;0.00;;;;;;;;;;5085390;28;20337;-76
2023/10/24 06:26:37;;;;;;;0.00;0.00;;;;;;;;;;5083645;28;20059;-76
2023/10/24 06:29:03;;;;;;;0.00;0.00;;;;;;;;;;5072195;28;20037;-77
2023/10/24 06:31:34;;;;;;;0.00;0.00;;;;;;;;;;5082609;28;20037;-78
2023/10/24 06:34:01;;;;;;;0.00;0.00;;;;;;;;;;5091609;28;20435;-78
2023/10/24 06:36:26;;;;;;;0.00;0.00;;;;;;;;;;5062454;28;20104;-76
2023/10/24 06:39:10;;;;;;;0.00;0.00;;;;;;;;;;5089562;28;20085;-79
2023/10/24 06:44:45;;;;;;;0.00;0.00;;;;;;;;;;5120033;22;20101;-79
2023/10/24 06:47:10;;;;;;;0.00;0.00;;;;;;;;;;5036813;28;20040;-81
2023/10/24 06:49:36;;;;;;;0.00;0.00;;;;;;;;;;5046717;28;20701;-81
2023/10/24 06:52:06;;;;;;;0.00;0.00;;;;;;;;;;5030043;28;20043;-79
2023/10/24 07:16:31;;;;;;;0.00;0.00;;;;;;;;;;5084476;22;20140;-78
2023/10/24 07:19:00;;;;;;;0.00;0.00;;;;;;;;;;5074256;28;20035;-78
2023/10/24 07:21:25;;;;;;;0.00;0.00;;;;;;;;;;5061022;28;20036;-78
2023/10/24 07:23:51;;;;;;;0.00;0.00;;;;;;;;;;5058266;28;20054;-78
2023/10/24 07:26:26;;;;;;;0.00;0.00;;;;;;;;;;5050296;28;20377;-79
2023/10/24 07:28:54;;;;;;;0.00;0.00;;;;;;;;;;5063475;28;20028;-78
2023/10/24 07:31:20;;;;;;;0.00;0.00;;;;;;;;;;5062195;28;20336;-77
2023/10/24 07:33:46;;;;;;;0.00;0.00;;;;;;;;;;5049878;28;20036;-79
2023/10/24 07:36:12;;;;;;;0.05;0.00;;;;;;;;;;5075101;28;20029;-80
2023/10/24 07:38:38;;;;;;;0.00;0.00;;;;;;;;;;5069318;28;20032;-78
2023/10/24 07:41:04;;;;;;;0.00;0.00;;;;;;;;;;5092699;28;20040;-80
2023/10/24 07:43:30;;;;;;;0.00;0.00;;;;;;;;;;5039088;28;20565;-80
2023/10/24 07:45:56;;;;;;;0.00;0.00;;;;;;;;;;5054517;28;20386;-80
2023/10/24 07:48:23;;;;;;;0.00;0.00;;;;;;;;;;5069258;28;20043;-81
2023/10/24 07:50:52;;;;;;;0.00;0.00;;;;;;;;;;5057067;28;20127;-81
2023/10/24 07:53:19;;;;;;;0.00;0.00;;;;;;;;;;5067155;28;20033;-81
2023/10/24 07:55:48;;;;;;;0.00;0.00;;;;;;;;;;5049197;28;20039;-82
2023/10/24 07:58:16;;;;;;;0.00;0.00;;;;;;;;;;5070050;28;20047;-80
2023/10/24 08:00:43;;;;;;;0.00;0.00;;;;;;;;;;5049693;28;20496;-81
2023/10/24 08:03:09;;;;;;;0.00;0.00;;;;;;;;;;5072099;28;20032;-78
2023/10/24 08:10:56;;;;;;;0.05;0.00;;;;;;;;;;5067774;22;20052;-79
2023/10/24 08:13:24;;;;;;;0.00;0.00;;;;;;;;;;5042135;28;20119;-86
2023/10/24 08:15:59;;;;;;;0.00;0.00;;;;;;;;;;5037803;28;20040;-83
2023/10/24 08:18:28;;;;;;;0.00;0.00;;;;;;;;;;5063190;28;20497;-79
2023/10/24 08:20:57;;;;;;;0.00;0.00;;;;;;;;;;5035954;28;20029;-82
2023/10/24 08:23:22;;;;;;;0.00;0.00;;;;;;;;;;5051550;28;20487;-80
2023/10/24 08:25:48;;;;;;;0.00;0.00;;;;;;;;;;5071006;28;20282;-83
2023/10/24 08:28:13;;;;;;;0.00;0.00;;;;;;;;;;5034119;28;20063;-79
2023/10/24 08:30:39;;;;;;;0.00;0.00;;;;;;;;;;5063499;28;20039;-78
2023/10/24 08:33:04;;;;;;;0.00;0.00;;;;;;;;;;5064363;28;20090;-79
2023/10/24 08:35:30;;;;;;;0.00;0.00;;;;;;;;;;5069112;28;20066;-79
2023/10/24 08:37:55;;;;;;;0.00;0.00;;;;;;;;;;5064332;28;20039;-79
2023/10/24 08:40:21;;;;;;;0.00;0.00;;;;;;;;;;5069484;28;20065;-79
2023/10/24 08:42:47;;;;;;;0.00;0.00;;;;;;;;;;5065958;28;20032;-82
2023/10/24 08:45:14;;;;;;;0.00;0.00;;;;;;;;;;5061667;28;20045;-82
2023/10/24 08:47:41;;;;;;;0.00;0.00;;;;;;;;;;5050941;28;20048;-80
2023/10/24 08:50:07;;;;;;;0.00;0.00;;;;;;;;;;5050864;28;20032;-79
2023/10/24 08:52:32;;;;;;;0.10;0.00;;;;;;;;;;5059313;28;20036;-81
2023/10/24 09:00:59;;;;;;;0.00;0.00;;;;;;;;;;5050041;28;20348;-79
2023/10/24 09:03:24;;;;;;;0.00;0.00;;;;;;;;;;5070377;28;20532;-78
2023/10/24 09:05:50;;;;;;;0.00;0.00;;;;;;;;;;5055777;28;20052;-80
2023/10/24 09:08:18;;;;;;;0.00;0.00;;;;;;;;;;5041266;28;20037;-79
2023/10/24 09:10:43;;;;;;;0.00;0.00;;;;;;;;;;5036017;28;20657;-80
2023/10/24 09:13:09;;;;;;;0.00;0.00;;;;;;;;;;5035530;28;20384;-79
2023/10/24 09:15:36;;;;;;;0.00;0.00;;;;;;;;;;5053034;28;20036;-80
2023/10/24 09:18:08;;;;;;;0.00;0.00;;;;;;;;;;5019276;28;20029;-80
2023/10/24 09:20:33;;;;;;;0.00;0.00;;;;;;;;;;5041362;28;20025;-79
2023/10/24 09:27:15;;;;;;;0.00;0.00;;;;;;;;;;4968789;28;20042;-80
2023/10/24 09:29:40;;;;;;;0.00;0.00;;;;;;;;;;4957963;29;20679;-79
2023/10/24 09:32:16;;;;;;;0.00;0.00;;;;;;;;;;5038378;28;20044;-78
2023/10/24 09:34:45;;;;;;;0.00;0.00;;;;;;;;;;5059114;28;20029;-80
2023/10/24 09:37:10;;;;;;;0.00;0.00;;;;;;;;;;5077464;28;20430;-80
2023/10/24 09:39:58;;;;;;;0.00;0.00;;;;;;;;;;5058728;28;20041;-81
2023/10/24 09:42:28;;;;;;;0.00;0.00;;;;;;;;;;5037508;28;20102;-79
2023/10/24 09:45:00;;;;;;;0.00;0.00;;;;;;;;;;5073053;28;20036;-79
2023/10/24 09:47:26;;;;;;;0.03;0.00;;;;;;;;;;5054677;28;20032;-79
2023/10/24 09:49:55;;;;;;;0.00;0.00;;;;;;;;;;5037852;28;20028;-78
2023/10/24 09:52:23;;;;;;;0.00;0.00;;;;;;;;;;5075119;28;20485;-80
2023/10/24 09:54:49;;;;;;;0.00;0.00;;;;;;;;;;5072137;28;20044;-79
2023/10/24 09:57:18;;;;;;;0.00;0.00;;;;;;;;;;5070815;28;20105;-79
2023/10/24 09:59:46;;;;;;;0.00;0.00;;;;;;;;;;5074112;28;20059;-80
2023/10/24 10:02:13;;;;;;;0.00;0.00;;;;;;;;;;5076710;28;20037;-78
2023/10/24 10:04:38;;;;;;;0.00;0.00;;;;;;;;;;5054412;28;20032;-80
2023/10/24 10:07:04;;;;;;;0.00;0.00;;;;;;;;;;5053192;28;20450;-80
2023/10/24 10:09:30;;;;;;;0.00;0.00;;;;;;;;;;5069907;28;20046;-79
2023/10/24 10:11:55;;;;;;;0.00;0.00;;;;;;;;;;5071099;28;20048;-79
2023/10/24 10:15:04;;;;;;;0.00;0.00;;;;;;;;;;5069471;28;20464;-77
2023/10/24 10:17:33;;;;;;;0.00;0.00;;;;;;;;;;5062280;28;20355;-79
2023/10/24 10:20:09;;;;;;;0.00;0.00;;;;;;;;;;5071475;28;20035;-80
2023/10/24 10:22:37;;;;;;;0.00;0.00;;;;;;;;;;5073035;28;20031;-78
2023/10/24 10:25:23;;;;;;;0.00;0.00;;;;;;;;;;5055695;28;20028;-80
2023/10/24 10:28:23;;;;;;;0.00;0.00;;;;;;;;;;5068451;28;20024;-81
2023/10/24 10:31:02;;;;;;;0.00;0.00;;;;;;;;;;5058892;28;20041;-81
2023/10/24 10:33:34;;;;;;;0.00;0.00;;;;;;;;;;5060653;28;20063;-81
2023/10/24 10:36:04;;;;;;;0.00;0.00;;;;;;;;;;5063314;28;20317;-80
2023/10/24 10:38:39;;;;;;;;;;;;;;;;;;5079347;28;20072;-82
2023/10/24 10:41:23;;;;;;;0.00;0.00;;;;;;;;;;5073377;28;19916;-83
2023/10/24 10:43:58;;;;;;;0.00;0.00;;;;;;;;;;5045787;28;20037;-81
2023/10/24 10:46:27;;;;;;;0.00;0.00;;;;;;;;;;5026382;28;20363;-78
2023/10/24 10:49:02;;;;;;;0.00;0.00;;;;;;;;;;5073008;28;20361;-79
2023/10/24 10:51:37;;;;;;;0.00;0.00;;;;;;;;;;5049713;28;20232;-78
2023/10/24 10:54:19;;;;;;;0.00;0.00;;;;;;;;;;5083359;28;20052;-79
2023/10/24 10:56:45;;;;;;;0.00;0.00;;;;;;;;;;5079556;28;20025;-78
2023/10/24 10:59:43;;;;;;;0.00;0.00;;;;;;;;;;5048258;28;20028;-78
2023/10/24 11:02:23;;;;;;;0.10;0.00;;;;;;;;;;5042927;28;20100;-77
2023/10/24 11:04:49;;;;;;;0.00;0.00;;;;;;;;;;5061128;28;20064;-76
2023/10/24 11:07:14;;;;;;;0.00;0.00;;;;;;;;;;5058788;28;20075;-77
2023/10/24 11:09:41;;;;;;;0.00;0.00;;;;;;;;;;5053443;28;20621;-77
2023/10/24 11:12:19;;;;;;;0.00;0.00;;;;;;;;;;5036762;28;20037;-78
2023/10/24 11:15:09;;;;;;;0.00;0.00;;;;;;;;;;5054888;28;20028;-79
2023/10/24 11:17:35;;;;;;;0.00;0.00;;;;;;;;;;5056923;28;20530;-79
2023/10/24 11:20:28;;;;;;;0.00;0.00;;;;;;;;;;5030590;28;20131;-81
2023/10/24 11:22:54;;;;;;;0.00;0.00;;;;;;;;;;5057082;28;20066;-81
2023/10/24 11:25:19;;;;;;;0.00;0.00;;;;;;;;;;5048279;28;20044;-81
2023/10/24 11:27:49;;;;;;;0.00;0.00;;;;;;;;;;5054469;28;20045;-80
2023/10/24 11:30:18;;;;;;;0.00;0.00;;;;;;;;;;5059750;28;20386;-81
2023/10/24 11:32:44;;;;;;;0.00;0.00;;;;;;;;;;5070216;28;20029;-75
2023/10/24 11:35:10;;;;;;;0.00;0.00;;;;;;;;;;5056595;28;20037;-78
2023/10/24 11:37:35;;;;;;;0.00;0.00;;;;;;;;;;5070378;28;20442;-76
2023/10/24 11:40:00;;;;;;;0.00;0.00;;;;;;;;;;5069860;28;20056;-77
2023/10/24 11:42:26;;;;;;;0.00;0.00;;;;;;;;;;5071410;28;20032;-77
2023/10/24 11:44:52;;;;;;;0.03;0.03;;;;;;;;;;5054343;28;20036;-78
2023/10/24 11:47:18;;;;;;;0.00;0.00;;;;;;;;;;5071785;28;20029;-78
2023/10/24 11:49:45;;;;;;;0.00;0.00;;;;;;;;;;5071117;28;20132;-78
2023/10/24 11:52:11;;;;;;;0.00;0.00;;;;;;;;;;5071143;28;20051;-77
2023/10/24 11:54:37;;;;;;;0.00;0.00;;;;;;;;;;5073641;28;20036;-79
2023/10/24 11:57:03;;;;;;;0.00;0.00;;;;;;;;;;5053659;28;20020;-77
2023/10/24 11:59:34;;;;;;;0.00;0.00;;;;;;;;;;5036636;28;20032;-76
2023/10/24 12:02:03;;;;;;;0.00;0.00;;;;;;;;;;5071544;28;20033;-76
2023/10/24 12:04:29;;;;;;;0.00;0.00;;;;;;;;;;5071717;28;20037;-77
2023/10/24 12:07:04;;;;;;;0.10;0.00;;;;;;;;;;5073108;28;20032;-77
2023/10/24 12:09:33;;;;;;;0.00;0.00;;;;;;;;;;5077419;28;20029;-77
2023/10/24 12:12:00;;;;;;;0.00;0.00;;;;;;;;;;5038104;28;20115;-77
2023/10/24 12:14:26;;;;;;;0.00;0.00;;;;;;;;;;5036606;28;20026;-76
2023/10/24 12:16:51;;;;;;;0.00;0.00;;;;;;;;;;5040070;28;20026;-76
2023/10/24 12:19:17;;;;;;;0.00;0.00;;;;;;;;;;5036795;28;20063;-78
2023/10/24 12:21:43;;;;;;;0.00;0.00;;;;;;;;;;5037711;28;20052;-76
2023/10/24 12:24:09;;;;;;;0.00;0.00;;;;;;;;;;5037396;28;20040;-78
2023/10/24 12:26:37;;;;;;;0.00;0.00;;;;;;;;;;5036402;28;20033;-78
2023/10/24 12:29:06;;;;;;;0.00;0.00;;;;;;;;;;5036485;28;20055;-77
2023/10/24 12:31:31;;;;;;;0.00;0.00;;;;;;;;;;5037833;28;20037;-77
2023/10/24 12:33:57;;;;;;;0.00;0.00;;;;;;;;;;5037529;28;20045;-77
2023/10/24 12:36:23;;;;;;;0.00;0.00;;;;;;;;;;5037483;28;20449;-78
2023/10/24 12:38:48;;;;;;;0.00;0.00;;;;;;;;;;5037724;28;20065;-77
2023/10/24 12:41:14;;;;;;;0.00;0.00;;;;;;;;;;5019543;28;20459;-78
2023/10/24 12:43:39;;;;;;;0.00;0.00;;;;;;;;;;5036234;28;20041;-77
2023/10/24 12:46:05;;;;;;;0.00;0.00;;;;;;;;;;5036123;28;20029;-77
2023/10/24 12:48:30;;;;;;;0.00;0.00;;;;;;;;;;5037463;28;20038;-77
2023/10/24 12:50:56;;;;;;;0.00;0.00;;;;;;;;;;5036407;28;20029;-76
2023/10/24 12:53:21;;;;;;;0.00;0.00;;;;;;;;;;5036356;28;20187;-76
2023/10/24 12:55:47;;;;;;;0.00;0.00;;;;;;;;;;5037306;28;20120;-77
2023/10/24 12:58:12;;;;;;;0.00;0.00;;;;;;;;;;5037674;28;20084;-77
2023/10/24 13:00:38;;;;;;;0.00;0.00;;;;;;;;;;5038300;28;20055;-77
2023/10/24 13:03:03;;;;;;;0.00;0.00;;;;;;;;;;5036998;28;20371;-77
2023/10/24 13:05:29;;;;;;;0.00;0.00;;;;;;;;;;5036712;28;20462;-76
2023/10/24 13:07:57;;;;;;;0.00;0.00;;;;;;;;;;5036945;28;20036;-77
2023/10/24 13:10:23;;;;;;;0.00;0.00;;;;;;;;;;5042102;28;20140;-76
2023/10/24 13:12:48;;;;;;;0.00;0.00;;;;;;;;;;5056439;28;20123;-77
2023/10/24 13:15:13;;;;;;;0.00;0.00;;;;;;;;;;5056999;28;20033;-77
2023/10/24 13:17:39;;;;;;;0.00;0.00;;;;;;;;;;5056872;28;20058;-79
2023/10/24 13:20:05;;;;;;;0.00;0.00;;;;;;;;;;5055894;28;20029;-77
2023/10/24 13:22:30;;;;;;;0.00;0.00;;;;;;;;;;5056852;28;20029;-80
2023/10/24 13:24:56;;;;;;;0.00;0.00;;;;;;;;;;5055451;28;20132;-80
2023/10/24 13:27:22;;;;;;;0.00;0.00;;;;;;;;;;5039715;28;20029;-80
2023/10/24 13:29:47;;;;;;;0.00;0.00;;;;;;;;;;5056807;28;20017;-82
2023/10/24 13:32:13;;;;;;;0.00;0.00;;;;;;;;;;5055641;28;20037;-82
2023/10/24 13:34:38;;;;;;;0.00;0.00;;;;;;;;;;5055344;28;20024;-79
2023/10/24 13:37:04;;;;;;;0.00;0.00;;;;;;;;;;5054906;28;20033;-82
2023/10/24 13:39:29;;;;;;;0.00;0.00;;;;;;;;;;5054971;28;20029;-81
2023/10/24 13:41:54;;;;;;;0.00;0.00;;;;;;;;;;5038613;28;20017;-82
2023/10/24 13:44:20;;;;;;;0.00;0.00;;;;;;;;;;5038685;28;20029;-81
2023/10/24 13:46:46;;;;;;;0.10;0.00;;;;;;;;;;5056228;28;20037;-82
2023/10/24 13:49:11;;;;;;;0.00;0.00;;;;;;;;;;5055243;28;20119;-81
2023/10/24 13:51:37;;;;;;;0.00;0.00;;;;;;;;;;5055345;28;20033;-81
2023/10/24 13:54:04;;;;;;;0.00;0.00;;;;;;;;;;5056374;28;20055;-81
2023/10/24 13:56:30;;;;;;;0.00;0.00;;;;;;;;;;5038117;28;20040;-81
2023/10/24 13:58:55;;;;;;;0.00;0.00;;;;;;;;;;5055958;28;20041;-80
2023/10/24 14:01:21;;;;;;;0.00;0.00;;;;;;;;;;5055734;28;20340;-81
2023/10/24 14:03:46;;;;;;;0.00;0.00;;;;;;;;;;5055902;28;20033;-80
2023/10/24 14:06:12;;;;;;;0.00;0.00;;;;;;;;;;5054567;28;20032;-81
2023/10/24 14:08:38;;;;;;;0.00;0.00;;;;;;;;;;5037856;28;20467;-81
2023/10/24 14:11:03;;;;;;;0.00;0.00;;;;;;;;;;5037845;28;20037;-81
2023/10/24 14:13:29;;;;;;;0.00;0.00;;;;;;;;;;5054474;28;20033;-80
2023/10/24 14:15:54;;;;;;;0.00;0.00;;;;;;;;;;5047677;28;20033;-80
2023/10/24 14:18:19;;;;;;;0.00;0.00;;;;;;;;;;5017655;28;20439;-80
2023/10/24 14:20:45;;;;;;;0.00;0.00;;;;;;;;;;5034062;28;20032;-80
2023/10/24 14:23:13;;;;;;;0.00;0.00;;;;;;;;;;5033667;28;20443;-80
2023/10/24 14:25:42;;;;;;;0.00;0.00;;;;;;;;;;5034834;28;20033;-82
2023/10/24 14:28:08;;;;;;;0.00;0.00;;;;;;;;;;5033835;28;20056;-81
2023/10/24 14:30:33;;;;;;;0.00;0.00;;;;;;;;;;5035268;28;20433;-81
2023/10/24 14:32:59;;;;;;;0.00;0.00;;;;;;;;;;5035434;28;20055;-81
2023/10/24 14:35:24;;;;;;;0.00;0.00;;;;;;;;;;5017348;28;20091;-80
2023/10/24 14:37:50;;;;;;;0.00;0.00;;;;;;;;;;5035565;28;20462;-81
2023/10/24 14:40:15;;;;;;;0.00;0.00;;;;;;;;;;5034811;28;20510;-82
2023/10/24 14:42:40;;;;;;;0.00;0.00;;;;;;;;;;5034696;28;20037;-81
2023/10/24 14:45:06;;;;;;;0.00;0.00;;;;;;;;;;5034922;28;20137;-80
2023/10/24 14:47:32;;;;;;;0.00;0.00;;;;;;;;;;5034603;28;20096;-81
2023/10/24 14:49:59;;;;;;;0.00;0.00;;;;;;;;;;5017512;28;20029;-81
2023/10/24 14:52:25;;;;;;;0.00;0.00;;;;;;;;;;5030033;28;20028;-82
2023/10/24 14:54:50;;;;;;;0.00;0.00;;;;;;;;;;5034269;28;20037;-81
2023/10/24 14:57:16;;;;;;;0.00;0.00;;;;;;;;;;5034825;28;20126;-81
2023/10/24 14:59:41;;;;;;;0.00;0.00;;;;;;;;;;5033470;28;20041;-81
2023/10/24 15:02:07;;;;;;;0.00;0.00;;;;;;;;;;5035147;28;20092;-80
2023/10/24 15:04:33;;;;;;;0.00;0.00;;;;;;;;;;5034746;28;20029;-80
2023/10/24 15:06:59;;;;;;;0.00;0.00;;;;;;;;;;5034462;28;20029;-81
2023/10/24 15:09:25;;;;;;;0.00;0.00;;;;;;;;;;5039591;28;20041;-80
2023/10/24 15:11:50;;;;;;;0.00;0.00;;;;;;;;;;5061010;28;20059;-82
2023/10/24 15:14:16;;;;;;;0.00;0.00;;;;;;;;;;5042945;28;20459;-80
2023/10/24 15:16:43;;;;;;;0.00;0.00;;;;;;;;;;5036570;28;20420;-80
2023/10/24 15:19:08;;;;;;;0.00;0.00;;;;;;;;;;5036155;28;20091;-81
2023/10/24 15:21:34;;;;;;;0.00;0.00;;;;;;;;;;5031652;28;20037;-80
2023/10/24 15:24:00;;;;;;;0.00;0.00;;;;;;;;;;5033058;28;20044;-81
2023/10/24 15:26:26;;;;;;;0.00;0.00;;;;;;;;;;5033152;28;20372;-81
2023/10/24 15:28:52;;;;;;;0.00;0.00;;;;;;;;;;5033360;28;20082;-81
2023/10/24 15:35:18;;;;;;;0.00;0.00;;;;;;;;;;5033889;28;20036;-81
2023/10/24 15:38:23;;;;;;;0.00;0.00;;;;;;;;;;5012242;28;20483;-81